sensor_id;sensor_type;location;lat;lon;timestamp;P1;durP1;ratioP1;P2;durP2;ratioP2
61741;SDS011;47650;49.848;9.620;2023-02-28T00:01:45;6.72;;;4.80;;
61741;SDS011;47650;49.848;9.620;2023-02-28T00:04:15;5.60;;;4.60;;
61741;SDS011;47650;49.848;9.620;2023-02-28T00:06:41;7.70;;;5.00;;
61741;SDS011;47650;49.848;9.620;2023-02-28T00:09:10;6.63;;;4.97;;
61741;SDS011;47650;49.848;9.620;2023-02-28T00:11:44;6.20;;;4.85;;
61741;SDS011;47650;49.848;9.620;2023-02-28T00:14:12;6.97;;;4.80;;
61741;SDS011;47650;49.848;9.620;2023-02-28T00:16:59;6.82;;;5.07;;
61741;SDS011;47650;49.848;9.620;2023-02-28T00:19:31;6.45;;;5.13;;
61741;SDS011;47650;49.848;9.620;2023-02-28T00:21:56;8.73;;;5.63;;
61741;SDS011;47650;49.848;9.620;2023-02-28T00:24:32;6.40;;;5.03;;
61741;SDS011;47650;49.848;9.620;2023-02-28T00:27:05;7.22;;;5.35;;
61741;SDS011;47650;49.848;9.620;2023-02-28T00:29:46;7.30;;;5.63;;
61741;SDS011;47650;49.848;9.620;2023-02-28T00:32:14;6.70;;;5.13;;
61741;SDS011;47650;49.848;9.620;2023-02-28T00:34:45;8.00;;;5.20;;
61741;SDS011;47650;49.848;9.620;2023-02-28T00:37:15;8.23;;;5.60;;
61741;SDS011;47650;49.848;9.620;2023-02-28T00:39:42;7.38;;;5.40;;
61741;SDS011;47650;49.848;9.620;2023-02-28T00:42:14;7.50;;;5.63;;
61741;SDS011;47650;49.848;9.620;2023-02-28T00:44:41;7.20;;;5.05;;
61741;SDS011;47650;49.848;9.620;2023-02-28T00:47:06;8.15;;;5.82;;
61741;SDS011;47650;49.848;9.620;2023-02-28T00:49:33;6.63;;;5.47;;
61741;SDS011;47650;49.848;9.620;2023-02-28T00:52:01;7.28;;;5.10;;
61741;SDS011;47650;49.848;9.620;2023-02-28T00:54:33;6.25;;;5.05;;
61741;SDS011;47650;49.848;9.620;2023-02-28T00:57:00;6.18;;;4.63;;
61741;SDS011;47650;49.848;9.620;2023-02-28T00:59:26;7.40;;;5.53;;
61741;SDS011;47650;49.848;9.620;2023-02-28T01:01:57;7.68;;;5.30;;
61741;SDS011;47650;49.848;9.620;2023-02-28T01:04:23;5.60;;;4.88;;
61741;SDS011;47650;49.848;9.620;2023-02-28T01:06:59;7.68;;;5.53;;
61741;SDS011;47650;49.848;9.620;2023-02-28T01:09:33;7.60;;;5.60;;
61741;SDS011;47650;49.848;9.620;2023-02-28T01:14:24;7.72;;;5.00;;
61741;SDS011;47650;49.848;9.620;2023-02-28T01:16:49;5.57;;;4.97;;
61741;SDS011;47650;49.848;9.620;2023-02-28T01:19:26;7.35;;;5.55;;
61741;SDS011;47650;49.848;9.620;2023-02-28T01:21:53;7.55;;;5.10;;
61741;SDS011;47650;49.848;9.620;2023-02-28T01:24:26;7.05;;;5.47;;
61741;SDS011;47650;49.848;9.620;2023-02-28T01:26:53;6.55;;;5.10;;
61741;SDS011;47650;49.848;9.620;2023-02-28T01:29:20;7.07;;;5.65;;
61741;SDS011;47650;49.848;9.620;2023-02-28T01:31:56;7.28;;;5.18;;
61741;SDS011;47650;49.848;9.620;2023-02-28T01:34:24;8.05;;;5.38;;
61741;SDS011;47650;49.848;9.620;2023-02-28T01:36:50;7.68;;;4.82;;
61741;SDS011;47650;49.848;9.620;2023-02-28T01:39:21;7.75;;;5.20;;
61741;SDS011;47650;49.848;9.620;2023-02-28T01:41:46;6.22;;;5.50;;
61741;SDS011;47650;49.848;9.620;2023-02-28T01:47:16;7.60;;;5.95;;
61741;SDS011;47650;49.848;9.620;2023-02-28T01:49:43;7.70;;;5.75;;
61741;SDS011;47650;49.848;9.620;2023-02-28T01:52:08;7.38;;;5.68;;
61741;SDS011;47650;49.848;9.620;2023-02-28T01:54:45;6.90;;;5.85;;
61741;SDS011;47650;49.848;9.620;2023-02-28T01:57:16;8.23;;;5.80;;
61741;SDS011;47650;49.848;9.620;2023-02-28T01:59:50;11.45;;;6.88;;
61741;SDS011;47650;49.848;9.620;2023-02-28T02:02:25;6.93;;;5.38;;
61741;SDS011;47650;49.848;9.620;2023-02-28T02:07:52;7.35;;;5.28;;
61741;SDS011;47650;49.848;9.620;2023-02-28T02:19:06;7.53;;;5.57;;
61741;SDS011;47650;49.848;9.620;2023-02-28T02:22:01;7.28;;;6.13;;
61741;SDS011;47650;49.848;9.620;2023-02-28T02:33:23;8.10;;;6.38;;
61741;SDS011;47650;49.848;9.620;2023-02-28T02:41:57;7.25;;;5.38;;
61741;SDS011;47650;49.848;9.620;2023-02-28T02:44:27;8.30;;;5.93;;
61741;SDS011;47650;49.848;9.620;2023-02-28T02:47:01;7.93;;;5.88;;
61741;SDS011;47650;49.848;9.620;2023-02-28T02:49:40;8.45;;;6.55;;
61741;SDS011;47650;49.848;9.620;2023-02-28T02:52:10;6.72;;;5.38;;
61741;SDS011;47650;49.848;9.620;2023-02-28T02:54:46;7.45;;;5.70;;
61741;SDS011;47650;49.848;9.620;2023-02-28T02:57:16;6.43;;;5.35;;
61741;SDS011;47650;49.848;9.620;2023-02-28T02:59:49;7.10;;;5.15;;
61741;SDS011;47650;49.848;9.620;2023-02-28T03:02:18;6.88;;;5.55;;
61741;SDS011;47650;49.848;9.620;2023-02-28T03:04:46;6.50;;;5.78;;
61741;SDS011;47650;49.848;9.620;2023-02-28T03:07:16;6.75;;;5.90;;
61741;SDS011;47650;49.848;9.620;2023-02-28T03:09:53;6.60;;;5.90;;
61741;SDS011;47650;49.848;9.620;2023-02-28T03:12:20;7.55;;;5.88;;
61741;SDS011;47650;49.848;9.620;2023-02-28T03:15:07;8.30;;;6.63;;
61741;SDS011;47650;49.848;9.620;2023-02-28T03:18:01;8.00;;;5.18;;
61741;SDS011;47650;49.848;9.620;2023-02-28T03:20:35;6.50;;;5.45;;
61741;SDS011;47650;49.848;9.620;2023-02-28T03:23:27;7.82;;;5.80;;
61741;SDS011;47650;49.848;9.620;2023-02-28T03:26:21;6.82;;;5.65;;
61741;SDS011;47650;49.848;9.620;2023-02-28T03:28:51;7.40;;;6.13;;
61741;SDS011;47650;49.848;9.620;2023-02-28T03:31:30;7.00;;;6.22;;
61741;SDS011;47650;49.848;9.620;2023-02-28T03:34:45;8.18;;;6.35;;
61741;SDS011;47650;49.848;9.620;2023-02-28T03:37:00;8.18;;;6.32;;
61741;SDS011;47650;49.848;9.620;2023-02-28T03:39:39;8.68;;;6.28;;
61741;SDS011;47650;49.848;9.620;2023-02-28T03:44:57;8.82;;;6.50;;
61741;SDS011;47650;49.848;9.620;2023-02-28T03:50:29;8.38;;;6.60;;
61741;SDS011;47650;49.848;9.620;2023-02-28T03:53:50;9.40;;;7.90;;
61741;SDS011;47650;49.848;9.620;2023-02-28T03:56:17;8.63;;;7.10;;
61741;SDS011;47650;49.848;9.620;2023-02-28T04:02:03;8.45;;;7.47;;
61741;SDS011;47650;49.848;9.620;2023-02-28T04:04:28;9.88;;;7.22;;
61741;SDS011;47650;49.848;9.620;2023-02-28T04:07:06;9.63;;;7.63;;
61741;SDS011;47650;49.848;9.620;2023-02-28T04:09:33;10.90;;;7.57;;
61741;SDS011;47650;49.848;9.620;2023-02-28T04:11:58;8.70;;;7.40;;
61741;SDS011;47650;49.848;9.620;2023-02-28T04:14:29;10.65;;;7.70;;
61741;SDS011;47650;49.848;9.620;2023-02-28T04:16:54;10.10;;;7.70;;
61741;SDS011;47650;49.848;9.620;2023-02-28T04:19:21;13.45;;;8.25;;
61741;SDS011;47650;49.848;9.620;2023-02-28T04:21:48;11.90;;;8.70;;
61741;SDS011;47650;49.848;9.620;2023-02-28T04:24:18;10.48;;;7.93;;
61741;SDS011;47650;49.848;9.620;2023-02-28T04:26:51;9.77;;;7.78;;
61741;SDS011;47650;49.848;9.620;2023-02-28T04:29:24;11.15;;;8.10;;
61741;SDS011;47650;49.848;9.620;2023-02-28T04:34:18;9.82;;;7.45;;
61741;SDS011;47650;49.848;9.620;2023-02-28T04:36:44;11.32;;;8.73;;
61741;SDS011;47650;49.848;9.620;2023-02-28T04:39:11;9.52;;;7.20;;
61741;SDS011;47650;49.848;9.620;2023-02-28T04:41:46;12.30;;;7.85;;
61741;SDS011;47650;49.848;9.620;2023-02-28T04:44:14;10.20;;;7.60;;
61741;SDS011;47650;49.848;9.620;2023-02-28T04:46:40;9.98;;;7.28;;
61741;SDS011;47650;49.848;9.620;2023-02-28T04:49:05;9.00;;;6.70;;
61741;SDS011;47650;49.848;9.620;2023-02-28T04:51:33;7.82;;;6.55;;
61741;SDS011;47650;49.848;9.620;2023-02-28T04:54:12;13.10;;;7.38;;
61741;SDS011;47650;49.848;9.620;2023-02-28T04:56:47;9.90;;;6.95;;
61741;SDS011;47650;49.848;9.620;2023-02-28T04:59:16;11.68;;;7.43;;
61741;SDS011;47650;49.848;9.620;2023-02-28T05:01:49;10.32;;;6.75;;
61741;SDS011;47650;49.848;9.620;2023-02-28T05:04:15;10.80;;;7.32;;
61741;SDS011;47650;49.848;9.620;2023-02-28T05:06:55;8.88;;;7.15;;
61741;SDS011;47650;49.848;9.620;2023-02-28T05:09:21;10.38;;;7.60;;
61741;SDS011;47650;49.848;9.620;2023-02-28T05:11:55;10.75;;;7.40;;
61741;SDS011;47650;49.848;9.620;2023-02-28T05:14:21;9.80;;;7.63;;
61741;SDS011;47650;49.848;9.620;2023-02-28T05:17:01;10.05;;;7.35;;
61741;SDS011;47650;49.848;9.620;2023-02-28T05:19:33;11.48;;;8.05;;
61741;SDS011;47650;49.848;9.620;2023-02-28T05:21:58;9.73;;;7.30;;
61741;SDS011;47650;49.848;9.620;2023-02-28T05:24:23;9.85;;;7.32;;
61741;SDS011;47650;49.848;9.620;2023-02-28T05:26:52;10.35;;;7.18;;
61741;SDS011;47650;49.848;9.620;2023-02-28T05:29:20;9.02;;;6.97;;
61741;SDS011;47650;49.848;9.620;2023-02-28T05:31:47;12.60;;;8.23;;
61741;SDS011;47650;49.848;9.620;2023-02-28T05:34:15;10.25;;;7.93;;
61741;SDS011;47650;49.848;9.620;2023-02-28T05:36:45;10.57;;;8.10;;
61741;SDS011;47650;49.848;9.620;2023-02-28T05:39:10;11.02;;;7.38;;
61741;SDS011;47650;49.848;9.620;2023-02-28T05:41:38;10.77;;;7.68;;
61741;SDS011;47650;49.848;9.620;2023-02-28T05:44:07;12.18;;;8.52;;
61741;SDS011;47650;49.848;9.620;2023-02-28T05:46:33;10.85;;;7.72;;
61741;SDS011;47650;49.848;9.620;2023-02-28T05:48:58;9.73;;;7.57;;
61741;SDS011;47650;49.848;9.620;2023-02-28T05:51:27;12.73;;;8.07;;
61741;SDS011;47650;49.848;9.620;2023-02-28T05:56:48;10.10;;;7.82;;
61741;SDS011;47650;49.848;9.620;2023-02-28T05:59:14;12.77;;;8.48;;
61741;SDS011;47650;49.848;9.620;2023-02-28T06:01:43;9.98;;;8.20;;
61741;SDS011;47650;49.848;9.620;2023-02-28T06:04:13;11.63;;;8.77;;
61741;SDS011;47650;49.848;9.620;2023-02-28T06:06:48;10.75;;;7.97;;
61741;SDS011;47650;49.848;9.620;2023-02-28T06:09:17;11.18;;;8.73;;
61741;SDS011;47650;49.848;9.620;2023-02-28T06:11:50;12.70;;;8.25;;
61741;SDS011;47650;49.848;9.620;2023-02-28T06:14:23;11.05;;;8.13;;
61741;SDS011;47650;49.848;9.620;2023-02-28T06:16:54;10.15;;;7.07;;
61741;SDS011;47650;49.848;9.620;2023-02-28T06:19:19;10.95;;;6.85;;
61741;SDS011;47650;49.848;9.620;2023-02-28T06:21:44;10.60;;;7.75;;
61741;SDS011;47650;49.848;9.620;2023-02-28T06:24:14;9.32;;;6.07;;
61741;SDS011;47650;49.848;9.620;2023-02-28T06:26:42;10.35;;;6.53;;
61741;SDS011;47650;49.848;9.620;2023-02-28T06:29:09;10.27;;;5.90;;
61741;SDS011;47650;49.848;9.620;2023-02-28T06:31:34;9.07;;;5.28;;
61741;SDS011;47650;49.848;9.620;2023-02-28T06:34:08;9.07;;;5.07;;
61741;SDS011;47650;49.848;9.620;2023-02-28T06:36:35;7.13;;;5.60;;
61741;SDS011;47650;49.848;9.620;2023-02-28T06:39:00;7.07;;;4.70;;
61741;SDS011;47650;49.848;9.620;2023-02-28T06:41:27;6.07;;;4.93;;
61741;SDS011;47650;49.848;9.620;2023-02-28T06:47:02;12.20;;;4.97;;
61741;SDS011;47650;49.848;9.620;2023-02-28T06:49:32;8.93;;;5.82;;
61741;SDS011;47650;49.848;9.620;2023-02-28T06:52:07;12.77;;;5.22;;
61741;SDS011;47650;49.848;9.620;2023-02-28T06:54:43;5.97;;;5.22;;
61741;SDS011;47650;49.848;9.620;2023-02-28T06:57:20;7.88;;;4.50;;
61741;SDS011;47650;49.848;9.620;2023-02-28T06:59:46;6.50;;;4.97;;
61741;SDS011;47650;49.848;9.620;2023-02-28T07:02:11;6.25;;;4.80;;
61741;SDS011;47650;49.848;9.620;2023-02-28T07:04:43;9.80;;;5.22;;
61741;SDS011;47650;49.848;9.620;2023-02-28T07:07:09;6.20;;;5.13;;
61741;SDS011;47650;49.848;9.620;2023-02-28T07:09:34;6.53;;;4.28;;
61741;SDS011;47650;49.848;9.620;2023-02-28T07:12:00;6.05;;;4.72;;
61741;SDS011;47650;49.848;9.620;2023-02-28T07:14:25;5.88;;;4.35;;
61741;SDS011;47650;49.848;9.620;2023-02-28T07:17:00;6.57;;;4.60;;
61741;SDS011;47650;49.848;9.620;2023-02-28T07:19:26;6.03;;;4.70;;
61741;SDS011;47650;49.848;9.620;2023-02-28T07:21:51;6.90;;;4.75;;
61741;SDS011;47650;49.848;9.620;2023-02-28T07:24:17;5.78;;;4.50;;
61741;SDS011;47650;49.848;9.620;2023-02-28T07:26:42;5.43;;;4.13;;
61741;SDS011;47650;49.848;9.620;2023-02-28T07:29:09;7.10;;;4.95;;
61741;SDS011;47650;49.848;9.620;2023-02-28T07:31:34;6.65;;;4.28;;
61741;SDS011;47650;49.848;9.620;2023-02-28T07:34:06;7.63;;;5.10;;
61741;SDS011;47650;49.848;9.620;2023-02-28T07:36:32;5.78;;;4.38;;
61741;SDS011;47650;49.848;9.620;2023-02-28T07:39:03;7.05;;;4.55;;
61741;SDS011;47650;49.848;9.620;2023-02-28T07:41:30;5.93;;;4.82;;
61741;SDS011;47650;49.848;9.620;2023-02-28T07:43:58;6.70;;;4.60;;
61741;SDS011;47650;49.848;9.620;2023-02-28T07:46:26;7.07;;;5.13;;
61741;SDS011;47650;49.848;9.620;2023-02-28T07:48:52;5.78;;;4.40;;
61741;SDS011;47650;49.848;9.620;2023-02-28T07:51:19;6.82;;;4.38;;
61741;SDS011;47650;49.848;9.620;2023-02-28T07:53:45;9.35;;;4.55;;
61741;SDS011;47650;49.848;9.620;2023-02-28T07:56:11;4.78;;;3.78;;
61741;SDS011;47650;49.848;9.620;2023-02-28T07:58:45;6.10;;;4.47;;
61741;SDS011;47650;49.848;9.620;2023-02-28T08:01:11;5.38;;;4.35;;
61741;SDS011;47650;49.848;9.620;2023-02-28T08:03:37;6.07;;;4.90;;
61741;SDS011;47650;49.848;9.620;2023-02-28T08:06:04;6.15;;;4.85;;
61741;SDS011;47650;49.848;9.620;2023-02-28T08:08:31;7.65;;;4.55;;
61741;SDS011;47650;49.848;9.620;2023-02-28T08:11:15;6.07;;;4.15;;
61741;SDS011;47650;49.848;9.620;2023-02-28T08:13:43;5.85;;;4.65;;
61741;SDS011;47650;49.848;9.620;2023-02-28T08:16:09;5.88;;;4.90;;
61741;SDS011;47650;49.848;9.620;2023-02-28T08:18:43;5.18;;;4.68;;
61741;SDS011;47650;49.848;9.620;2023-02-28T08:21:09;6.38;;;4.85;;
61741;SDS011;47650;49.848;9.620;2023-02-28T08:23:36;6.75;;;5.38;;
61741;SDS011;47650;49.848;9.620;2023-02-28T08:26:02;7.32;;;5.22;;
61741;SDS011;47650;49.848;9.620;2023-02-28T08:28:28;11.35;;;5.50;;
61741;SDS011;47650;49.848;9.620;2023-02-28T08:33:22;5.60;;;4.97;;
61741;SDS011;47650;49.848;9.620;2023-02-28T08:35:48;6.03;;;5.03;;
61741;SDS011;47650;49.848;9.620;2023-02-28T08:38:14;6.47;;;5.65;;
61741;SDS011;47650;49.848;9.620;2023-02-28T08:40:40;7.10;;;5.68;;
61741;SDS011;47650;49.848;9.620;2023-02-28T08:43:06;6.22;;;5.47;;
61741;SDS011;47650;49.848;9.620;2023-02-28T08:45:38;6.43;;;5.82;;
61741;SDS011;47650;49.848;9.620;2023-02-28T08:48:07;5.80;;;5.30;;
61741;SDS011;47650;49.848;9.620;2023-02-28T08:50:32;5.82;;;5.32;;
61741;SDS011;47650;49.848;9.620;2023-02-28T08:52:59;7.07;;;5.60;;
61741;SDS011;47650;49.848;9.620;2023-02-28T08:55:24;7.57;;;6.35;;
61741;SDS011;47650;49.848;9.620;2023-02-28T08:57:51;7.28;;;6.45;;
61741;SDS011;47650;49.848;9.620;2023-02-28T09:00:17;7.38;;;6.78;;
61741;SDS011;47650;49.848;9.620;2023-02-28T09:02:44;6.85;;;6.25;;
61741;SDS011;47650;49.848;9.620;2023-02-28T09:05:10;6.28;;;5.68;;
61741;SDS011;47650;49.848;9.620;2023-02-28T09:07:36;6.97;;;6.38;;
61741;SDS011;47650;49.848;9.620;2023-02-28T09:10:02;7.00;;;6.22;;
61741;SDS011;47650;49.848;9.620;2023-02-28T09:12:31;7.88;;;6.60;;
61741;SDS011;47650;49.848;9.620;2023-02-28T09:14:58;6.78;;;6.07;;
61741;SDS011;47650;49.848;9.620;2023-02-28T09:17:23;7.30;;;6.70;;
61741;SDS011;47650;49.848;9.620;2023-02-28T09:19:50;9.35;;;8.55;;
61741;SDS011;47650;49.848;9.620;2023-02-28T09:22:16;7.95;;;7.25;;
61741;SDS011;47650;49.848;9.620;2023-02-28T09:24:47;7.50;;;6.45;;
61741;SDS011;47650;49.848;9.620;2023-02-28T09:27:13;6.78;;;6.15;;
61741;SDS011;47650;49.848;9.620;2023-02-28T09:29:41;8.73;;;8.13;;
61741;SDS011;47650;49.848;9.620;2023-02-28T09:32:07;8.05;;;7.28;;
61741;SDS011;47650;49.848;9.620;2023-02-28T09:34:32;9.32;;;8.63;;
61741;SDS011;47650;49.848;9.620;2023-02-28T09:36:59;13.50;;;12.60;;
61741;SDS011;47650;49.848;9.620;2023-02-28T09:39:24;9.90;;;9.10;;
61741;SDS011;47650;49.848;9.620;2023-02-28T09:42:00;10.93;;;10.13;;
61741;SDS011;47650;49.848;9.620;2023-02-28T09:49:54;16.40;;;15.40;;
61741;SDS011;47650;49.848;9.620;2023-02-28T09:52:29;38.90;;;36.95;;
61741;SDS011;47650;49.848;9.620;2023-02-28T09:55:04;29.13;;;27.45;;
61741;SDS011;47650;49.848;9.620;2023-02-28T09:57:47;24.23;;;22.80;;
61741;SDS011;47650;49.848;9.620;2023-02-28T10:00:18;24.38;;;22.95;;
61741;SDS011;47650;49.848;9.620;2023-02-28T10:05:41;9.48;;;8.68;;
61741;SDS011;47650;49.848;9.620;2023-02-28T10:08:23;14.43;;;13.43;;
61741;SDS011;47650;49.848;9.620;2023-02-28T10:11:03;7.82;;;7.00;;
61741;SDS011;47650;49.848;9.620;2023-02-28T10:16:42;8.82;;;8.05;;
61741;SDS011;47650;49.848;9.620;2023-02-28T10:21:50;8.88;;;6.55;;
61741;SDS011;47650;49.848;9.620;2023-02-28T10:24:31;7.53;;;6.60;;
61741;SDS011;47650;49.848;9.620;2023-02-28T10:29:48;6.63;;;5.93;;
61741;SDS011;47650;49.848;9.620;2023-02-28T10:32:28;7.97;;;5.95;;
61741;SDS011;47650;49.848;9.620;2023-02-28T10:35:00;10.05;;;7.40;;
61741;SDS011;47650;49.848;9.620;2023-02-28T10:37:33;8.63;;;6.15;;
61741;SDS011;47650;49.848;9.620;2023-02-28T10:40:03;9.23;;;7.22;;
61741;SDS011;47650;49.848;9.620;2023-02-28T10:42:30;8.73;;;6.28;;
61741;SDS011;47650;49.848;9.620;2023-02-28T10:47:52;8.32;;;7.60;;
61741;SDS011;47650;49.848;9.620;2023-02-28T10:58:22;8.10;;;7.30;;
61741;SDS011;47650;49.848;9.620;2023-02-28T11:00:51;7.45;;;6.07;;
61741;SDS011;47650;49.848;9.620;2023-02-28T11:03:29;7.22;;;6.07;;
61741;SDS011;47650;49.848;9.620;2023-02-28T11:06:03;7.93;;;7.10;;
61741;SDS011;47650;49.848;9.620;2023-02-28T11:08:31;8.73;;;8.02;;
61741;SDS011;47650;49.848;9.620;2023-02-28T11:11:04;7.53;;;6.72;;
61741;SDS011;47650;49.848;9.620;2023-02-28T11:13:33;9.32;;;6.25;;
61741;SDS011;47650;49.848;9.620;2023-02-28T11:16:02;13.20;;;12.02;;
61741;SDS011;47650;49.848;9.620;2023-02-28T11:18:36;9.70;;;8.80;;
61741;SDS011;47650;49.848;9.620;2023-02-28T11:21:08;6.68;;;5.95;;
61741;SDS011;47650;49.848;9.620;2023-02-28T11:23:42;7.10;;;6.40;;
61741;SDS011;47650;49.848;9.620;2023-02-28T11:26:15;8.15;;;6.53;;
61741;SDS011;47650;49.848;9.620;2023-02-28T11:29:10;7.57;;;6.75;;
61741;SDS011;47650;49.848;9.620;2023-02-28T11:34:36;9.85;;;7.82;;
61741;SDS011;47650;49.848;9.620;2023-02-28T11:37:11;8.77;;;7.38;;
61741;SDS011;47650;49.848;9.620;2023-02-28T11:39:39;6.15;;;5.47;;
61741;SDS011;47650;49.848;9.620;2023-02-28T11:42:07;7.10;;;6.40;;
61741;SDS011;47650;49.848;9.620;2023-02-28T11:51:10;7.38;;;6.45;;
61741;SDS011;47650;49.848;9.620;2023-02-28T11:56:41;7.50;;;6.78;;
61741;SDS011;47650;49.848;9.620;2023-02-28T11:59:22;7.72;;;6.35;;
61741;SDS011;47650;49.848;9.620;2023-02-28T12:02:20;6.75;;;6.15;;
61741;SDS011;47650;49.848;9.620;2023-02-28T12:13:25;6.72;;;6.05;;
61741;SDS011;47650;49.848;9.620;2023-02-28T12:24:17;6.28;;;5.68;;
61741;SDS011;47650;49.848;9.620;2023-02-28T12:27:07;6.38;;;5.78;;
61741;SDS011;47650;49.848;9.620;2023-02-28T12:32:25;6.10;;;5.50;;
61741;SDS011;47650;49.848;9.620;2023-02-28T12:34:57;6.03;;;5.43;;
61741;SDS011;47650;49.848;9.620;2023-02-28T12:37:37;6.07;;;5.45;;
61741;SDS011;47650;49.848;9.620;2023-02-28T12:40:11;6.07;;;5.47;;
61741;SDS011;47650;49.848;9.620;2023-02-28T12:42:41;6.87;;;6.17;;
61741;SDS011;47650;49.848;9.620;2023-02-28T12:45:39;8.95;;;6.40;;
61741;SDS011;47650;49.848;9.620;2023-02-28T12:49:17;6.53;;;5.93;;
61741;SDS011;47650;49.848;9.620;2023-02-28T12:51:21;7.03;;;6.30;;
61741;SDS011;47650;49.848;9.620;2023-02-28T12:53:57;6.68;;;6.07;;
61741;SDS011;47650;49.848;9.620;2023-02-28T12:59:37;8.20;;;6.35;;
61741;SDS011;47650;49.848;9.620;2023-02-28T13:05:19;6.15;;;5.55;;
61741;SDS011;47650;49.848;9.620;2023-02-28T13:10:39;6.30;;;5.70;;
61741;SDS011;47650;49.848;9.620;2023-02-28T13:13:11;6.07;;;5.47;;
61741;SDS011;47650;49.848;9.620;2023-02-28T13:15:41;7.60;;;4.85;;
61741;SDS011;47650;49.848;9.620;2023-02-28T13:18:31;5.78;;;5.18;;
61741;SDS011;47650;49.848;9.620;2023-02-28T13:21:02;6.25;;;4.97;;
61741;SDS011;47650;49.848;9.620;2023-02-28T13:26:22;6.88;;;5.20;;
61741;SDS011;47650;49.848;9.620;2023-02-28T13:34:40;7.82;;;6.05;;
61741;SDS011;47650;49.848;9.620;2023-02-28T13:43:01;6.20;;;5.60;;
61741;SDS011;47650;49.848;9.620;2023-02-28T13:45:28;6.10;;;5.50;;
61741;SDS011;47650;49.848;9.620;2023-02-28T13:48:02;6.05;;;5.50;;
61741;SDS011;47650;49.848;9.620;2023-02-28T13:50:49;6.10;;;5.50;;
61741;SDS011;47650;49.848;9.620;2023-02-28T13:53:27;6.07;;;5.35;;
61741;SDS011;47650;49.848;9.620;2023-02-28T14:01:36;6.28;;;5.72;;
61741;SDS011;47650;49.848;9.620;2023-02-28T14:04:28;7.72;;;6.20;;
61741;SDS011;47650;49.848;9.620;2023-02-28T14:07:04;6.60;;;5.83;;
61741;SDS011;47650;49.848;9.620;2023-02-28T14:09:32;6.18;;;5.65;;
61741;SDS011;47650;49.848;9.620;2023-02-28T14:15:17;6.38;;;5.10;;
61741;SDS011;47650;49.848;9.620;2023-02-28T14:20:58;6.78;;;5.80;;
61741;SDS011;47650;49.848;9.620;2023-02-28T14:38:25;6.30;;;5.72;;
61741;SDS011;47650;49.848;9.620;2023-02-28T14:41:03;6.25;;;5.65;;
61741;SDS011;47650;49.848;9.620;2023-02-28T14:43:32;6.43;;;5.80;;
61741;SDS011;47650;49.848;9.620;2023-02-28T14:46:01;5.78;;;5.22;;
61741;SDS011;47650;49.848;9.620;2023-02-28T14:48:27;6.40;;;5.80;;
61741;SDS011;47650;49.848;9.620;2023-02-28T14:50:55;6.43;;;5.30;;
61741;SDS011;47650;49.848;9.620;2023-02-28T14:53:35;6.65;;;5.70;;
61741;SDS011;47650;49.848;9.620;2023-02-28T14:56:02;6.15;;;5.55;;
61741;SDS011;47650;49.848;9.620;2023-02-28T14:58:32;6.60;;;6.00;;
61741;SDS011;47650;49.848;9.620;2023-02-28T15:01:00;6.80;;;6.10;;
61741;SDS011;47650;49.848;9.620;2023-02-28T15:03:33;6.50;;;5.63;;
61741;SDS011;47650;49.848;9.620;2023-02-28T15:06:21;6.00;;;5.32;;
61741;SDS011;47650;49.848;9.620;2023-02-28T15:08:56;7.13;;;5.80;;
61741;SDS011;47650;49.848;9.620;2023-02-28T15:11:45;6.03;;;5.43;;
61741;SDS011;47650;49.848;9.620;2023-02-28T15:14:17;7.25;;;5.10;;
61741;SDS011;47650;49.848;9.620;2023-02-28T15:16:44;6.18;;;5.57;;
61741;SDS011;47650;49.848;9.620;2023-02-28T15:19:21;6.03;;;5.13;;
61741;SDS011;47650;49.848;9.620;2023-02-28T15:21:52;6.05;;;5.45;;
61741;SDS011;47650;49.848;9.620;2023-02-28T15:24:35;6.55;;;5.47;;
61741;SDS011;47650;49.848;9.620;2023-02-28T15:27:05;7.65;;;5.57;;
61741;SDS011;47650;49.848;9.620;2023-02-28T15:29:44;7.50;;;6.22;;
61741;SDS011;47650;49.848;9.620;2023-02-28T15:32:32;7.47;;;6.05;;
61741;SDS011;47650;49.848;9.620;2023-02-28T15:35:17;7.70;;;5.50;;
61741;SDS011;47650;49.848;9.620;2023-02-28T15:38:03;6.25;;;5.65;;
61741;SDS011;47650;49.848;9.620;2023-02-28T15:40:55;7.97;;;6.05;;
61741;SDS011;47650;49.848;9.620;2023-02-28T15:45:58;7.70;;;5.88;;
61741;SDS011;47650;49.848;9.620;2023-02-28T15:51:16;8.35;;;6.07;;
61741;SDS011;47650;49.848;9.620;2023-02-28T15:53:48;6.55;;;5.50;;
61741;SDS011;47650;49.848;9.620;2023-02-28T15:56:28;7.10;;;6.40;;
61741;SDS011;47650;49.848;9.620;2023-02-28T15:58:56;6.13;;;5.53;;
61741;SDS011;47650;49.848;9.620;2023-02-28T16:01:26;9.52;;;7.05;;
61741;SDS011;47650;49.848;9.620;2023-02-28T16:03:57;9.18;;;6.80;;
61741;SDS011;47650;49.848;9.620;2023-02-28T16:09:16;8.25;;;6.13;;
61741;SDS011;47650;49.848;9.620;2023-02-28T16:11:45;9.07;;;6.00;;
61741;SDS011;47650;49.848;9.620;2023-02-28T16:14:14;7.18;;;6.28;;
61741;SDS011;47650;49.848;9.620;2023-02-28T16:16:42;9.68;;;6.32;;
61741;SDS011;47650;49.848;9.620;2023-02-28T16:19:17;6.85;;;5.85;;
61741;SDS011;47650;49.848;9.620;2023-02-28T16:21:43;8.38;;;6.20;;
61741;SDS011;47650;49.848;9.620;2023-02-28T16:24:20;6.60;;;5.65;;
61741;SDS011;47650;49.848;9.620;2023-02-28T16:26:46;6.82;;;6.05;;
61741;SDS011;47650;49.848;9.620;2023-02-28T16:29:30;9.85;;;8.07;;
61741;SDS011;47650;49.848;9.620;2023-02-28T16:32:04;9.75;;;7.65;;
61741;SDS011;47650;49.848;9.620;2023-02-28T16:34:30;10.35;;;7.50;;
61741;SDS011;47650;49.848;9.620;2023-02-28T16:36:56;10.80;;;7.50;;
61741;SDS011;47650;49.848;9.620;2023-02-28T16:39:22;9.23;;;7.30;;
61741;SDS011;47650;49.848;9.620;2023-02-28T16:41:54;8.10;;;6.75;;
61741;SDS011;47650;49.848;9.620;2023-02-28T16:44:32;8.52;;;6.95;;
61741;SDS011;47650;49.848;9.620;2023-02-28T16:47:08;11.43;;;8.60;;
61741;SDS011;47650;49.848;9.620;2023-02-28T16:49:35;8.82;;;7.30;;
61741;SDS011;47650;49.848;9.620;2023-02-28T16:52:03;9.85;;;6.90;;
61741;SDS011;47650;49.848;9.620;2023-02-28T16:54:28;9.93;;;7.85;;
61741;SDS011;47650;49.848;9.620;2023-02-28T16:56:53;12.63;;;8.25;;
61741;SDS011;47650;49.848;9.620;2023-02-28T16:59:21;8.27;;;6.38;;
61741;SDS011;47650;49.848;9.620;2023-02-28T17:01:48;8.90;;;6.57;;
61741;SDS011;47650;49.848;9.620;2023-02-28T17:04:15;8.20;;;6.47;;
61741;SDS011;47650;49.848;9.620;2023-02-28T17:06:40;8.02;;;6.10;;
61741;SDS011;47650;49.848;9.620;2023-02-28T17:09:08;8.35;;;6.72;;
61741;SDS011;47650;49.848;9.620;2023-02-28T17:11:41;9.38;;;6.97;;
61741;SDS011;47650;49.848;9.620;2023-02-28T17:14:06;9.00;;;6.57;;
61741;SDS011;47650;49.848;9.620;2023-02-28T17:16:32;11.07;;;7.70;;
61741;SDS011;47650;49.848;9.620;2023-02-28T17:19:04;12.05;;;7.95;;
61741;SDS011;47650;49.848;9.620;2023-02-28T17:21:32;12.80;;;8.65;;
61741;SDS011;47650;49.848;9.620;2023-02-28T17:23:58;10.27;;;7.45;;
61741;SDS011;47650;49.848;9.620;2023-02-28T17:26:24;9.65;;;7.05;;
61741;SDS011;47650;49.848;9.620;2023-02-28T17:28:50;9.07;;;6.93;;
61741;SDS011;47650;49.848;9.620;2023-02-28T17:31:31;11.85;;;7.93;;
61741;SDS011;47650;49.848;9.620;2023-02-28T17:34:08;10.15;;;7.35;;
61741;SDS011;47650;49.848;9.620;2023-02-28T17:36:35;15.70;;;10.32;;
61741;SDS011;47650;49.848;9.620;2023-02-28T17:39:08;13.77;;;9.73;;
61741;SDS011;47650;49.848;9.620;2023-02-28T17:41:37;13.40;;;8.30;;
61741;SDS011;47650;49.848;9.620;2023-02-28T17:44:08;17.58;;;11.32;;
61741;SDS011;47650;49.848;9.620;2023-02-28T17:46:34;16.55;;;11.68;;
61741;SDS011;47650;49.848;9.620;2023-02-28T17:49:02;18.08;;;13.75;;
61741;SDS011;47650;49.848;9.620;2023-02-28T17:51:28;17.92;;;12.43;;
61741;SDS011;47650;49.848;9.620;2023-02-28T17:53:53;16.45;;;11.88;;
61741;SDS011;47650;49.848;9.620;2023-02-28T17:56:26;14.43;;;11.20;;
61741;SDS011;47650;49.848;9.620;2023-02-28T17:58:52;13.27;;;10.15;;